createdAt,value
2019-03-09T00:01:59.229Z,2.30
2019-03-09T00:04:30.600Z,3.20
2019-03-09T00:07:01.957Z,2.10
2019-03-09T00:09:33.337Z,1.90
2019-03-09T00:12:04.708Z,2.67
2019-03-09T00:14:36.008Z,2.80
2019-03-09T00:17:07.405Z,2.43
2019-03-09T00:19:38.674Z,2.77
2019-03-09T00:22:10.037Z,2.03
2019-03-09T00:24:55.203Z,3.20
2019-03-09T00:27:35.516Z,2.60
2019-03-09T00:30:22.438Z,3.50
2019-03-09T00:32:53.829Z,3.40
2019-03-09T00:35:25.090Z,2.80
2019-03-09T00:37:56.558Z,2.90
2019-03-09T00:40:27.956Z,3.90
2019-03-09T00:42:59.328Z,3.23
2019-03-09T00:45:30.661Z,3.10
2019-03-09T00:48:01.944Z,3.50
2019-03-09T00:50:33.753Z,2.80
2019-03-09T00:53:05.012Z,3.40
2019-03-09T00:55:36.330Z,3.80
2019-03-09T00:58:07.627Z,3.53
2019-03-09T01:00:39.106Z,2.60
2019-03-09T01:03:10.388Z,2.97
2019-03-09T01:05:41.793Z,2.87
2019-03-09T01:08:13.049Z,3.20
2019-03-09T01:10:44.468Z,2.70
2019-03-09T01:13:15.728Z,2.70
2019-03-09T01:15:47.092Z,2.75
2019-03-09T01:18:18.347Z,2.63
2019-03-09T01:20:49.925Z,2.83
2019-03-09T01:23:21.255Z,3.03
2019-03-09T01:25:52.632Z,3.10
2019-03-09T01:28:23.883Z,3.37
2019-03-09T01:30:55.303Z,3.23
2019-03-09T01:33:26.566Z,3.53
2019-03-09T01:35:57.959Z,3.50
2019-03-09T01:38:30.106Z,3.13
2019-03-09T01:41:01.534Z,2.77
2019-03-09T01:43:32.835Z,2.97
2019-03-09T01:46:04.252Z,3.20
2019-03-09T01:48:35.632Z,2.80
2019-03-09T01:51:07.040Z,3.07
2019-03-09T01:53:38.290Z,2.73
2019-03-09T01:56:09.555Z,2.80
2019-03-09T01:58:40.819Z,2.40
2019-03-09T02:01:12.230Z,2.70
2019-03-09T02:03:43.549Z,2.57
2019-03-09T02:06:14.890Z,2.97
2019-03-09T02:08:46.240Z,2.50
2019-03-09T02:11:17.720Z,2.30
2019-03-09T02:13:49.068Z,2.33
2019-03-09T02:16:20.488Z,1.90
2019-03-09T02:18:53.435Z,1.90
2019-03-09T02:21:24.868Z,2.08
2019-03-09T02:23:56.183Z,2.50
2019-03-09T02:26:27.679Z,2.50
2019-03-09T02:29:00.964Z,2.13
2019-03-09T02:31:32.015Z,2.73
2019-03-09T02:34:03.319Z,2.13
2019-03-09T02:36:34.644Z,1.80
2019-03-09T02:39:30.150Z,2.20
2019-03-09T02:42:01.397Z,2.90
2019-03-09T02:44:32.673Z,2.43
2019-03-09T02:47:04.115Z,3.03
2019-03-09T02:49:35.507Z,2.70
2019-03-09T02:52:06.778Z,2.27
2019-03-09T02:54:38.047Z,2.57
2019-03-09T02:57:09.517Z,2.57
2019-03-09T02:59:40.876Z,2.30
2019-03-09T03:02:31.372Z,3.37
2019-03-09T03:05:02.705Z,2.90
2019-03-09T03:07:34.085Z,2.70
2019-03-09T03:10:06.478Z,2.87
2019-03-09T03:12:37.808Z,3.10
2019-03-09T03:15:09.856Z,2.93
2019-03-09T03:17:41.493Z,3.20
2019-03-09T03:20:12.863Z,2.27
2019-03-09T03:22:44.269Z,2.20
2019-03-09T03:25:15.593Z,2.40
2019-03-09T03:27:48.983Z,2.77
2019-03-09T03:30:20.315Z,2.00
2019-03-09T03:32:53.436Z,2.53
2019-03-09T03:35:24.780Z,2.75
2019-03-09T03:37:56.089Z,2.80
2019-03-09T03:40:27.466Z,2.67
2019-03-09T03:42:58.953Z,2.63
2019-03-09T03:45:30.268Z,2.30
2019-03-09T03:48:01.533Z,2.70
2019-03-09T03:50:32.816Z,2.85
2019-03-09T03:53:04.225Z,2.50
2019-03-09T03:55:35.489Z,2.50
2019-03-09T03:58:06.898Z,2.60
2019-03-09T04:00:38.305Z,2.80
2019-03-09T04:03:09.781Z,2.37
2019-03-09T04:05:41.203Z,2.30
2019-03-09T04:08:12.898Z,2.73
2019-03-09T04:10:44.126Z,2.63
2019-03-09T04:13:15.493Z,2.63
2019-03-09T04:15:46.825Z,2.73
2019-03-09T04:18:19.733Z,2.93
2019-03-09T04:20:51.099Z,2.73
2019-03-09T04:23:22.476Z,3.30
2019-03-09T04:25:53.754Z,3.53
2019-03-09T04:28:25.141Z,4.30
2019-03-09T04:30:56.448Z,3.73
2019-03-09T04:33:31.891Z,3.00
2019-03-09T04:36:03.157Z,3.17
2019-03-09T04:38:34.563Z,4.03
2019-03-09T04:41:05.891Z,3.77
2019-03-09T04:43:37.200Z,3.77
2019-03-09T04:46:08.531Z,4.30
2019-03-09T04:48:39.821Z,4.63
2019-03-09T04:51:11.176Z,4.37
2019-03-09T04:53:42.453Z,3.43
2019-03-09T04:56:15.485Z,3.00
2019-03-09T04:58:47.774Z,3.30
2019-03-09T05:01:19.053Z,3.17
2019-03-09T05:04:11.857Z,3.27
2019-03-09T05:06:44.774Z,3.50
2019-03-09T05:09:30.043Z,3.50
2019-03-09T05:12:01.330Z,3.93
2019-03-09T05:14:32.587Z,2.97
2019-03-09T05:17:03.939Z,2.90
2019-03-09T05:19:35.263Z,4.57
2019-03-09T05:22:06.621Z,3.60
2019-03-09T05:24:38.053Z,3.83
2019-03-09T05:27:09.466Z,2.73
2019-03-09T05:29:40.965Z,3.40
2019-03-09T05:32:12.836Z,3.67
2019-03-09T05:34:44.933Z,2.90
2019-03-09T05:37:16.433Z,2.85
2019-03-09T05:39:47.818Z,3.40
2019-03-09T05:42:19.103Z,2.90
2019-03-09T05:44:51.291Z,3.47
2019-03-09T05:47:22.578Z,3.33
2019-03-09T05:49:53.921Z,3.60
2019-03-09T05:52:35.431Z,3.87
2019-03-09T05:55:16.299Z,4.53
2019-03-09T05:57:47.685Z,3.73
2019-03-09T06:00:19.141Z,4.60
2019-03-09T06:02:50.435Z,12.47
2019-03-09T06:05:33.175Z,9.60
2019-03-09T06:08:04.825Z,10.73
2019-03-09T06:10:36.205Z,5.13
2019-03-09T06:13:07.666Z,8.10
2019-03-09T06:15:39.786Z,5.50
2019-03-09T06:18:11.124Z,5.20
2019-03-09T06:20:42.480Z,5.00
2019-03-09T06:23:13.831Z,4.27
2019-03-09T06:25:45.244Z,4.50
2019-03-09T06:28:16.478Z,5.10
2019-03-09T06:30:47.743Z,5.70
2019-03-09T06:33:37.121Z,5.37
2019-03-09T06:36:51.029Z,6.10
2019-03-09T06:39:34.626Z,5.90
2019-03-09T06:42:35.095Z,6.90
2019-03-09T06:45:08.987Z,5.90
2019-03-09T06:47:40.457Z,9.75
2019-03-09T06:50:14.116Z,6.37
2019-03-09T06:52:45.364Z,4.50
2019-03-09T06:55:18.450Z,4.60
2019-03-09T06:57:49.710Z,8.70
2019-03-09T07:00:33.119Z,5.40
2019-03-09T07:03:04.764Z,5.93
2019-03-09T07:05:36.234Z,5.20
2019-03-09T07:08:07.521Z,5.73
2019-03-09T07:10:39.026Z,5.97
2019-03-09T07:13:10.455Z,6.08
2019-03-09T07:15:43.701Z,6.70
2019-03-09T07:18:17.399Z,5.57
2019-03-09T07:20:48.847Z,5.80
2019-03-09T07:23:20.240Z,5.10
2019-03-09T07:25:51.522Z,5.10
2019-03-09T07:28:22.805Z,4.47
2019-03-09T07:30:54.091Z,4.10
2019-03-09T07:33:25.475Z,4.10
2019-03-09T07:35:56.779Z,3.60
2019-03-09T07:38:28.282Z,3.20
2019-03-09T07:40:59.632Z,3.00
2019-03-09T07:43:31.014Z,2.53
2019-03-09T07:46:02.276Z,2.37
2019-03-09T07:48:35.648Z,1.70
2019-03-09T07:51:06.926Z,1.73
2019-03-09T07:53:38.308Z,2.20
2019-03-09T07:56:09.615Z,2.10
2019-03-09T07:58:40.890Z,2.53
2019-03-09T08:01:12.148Z,1.87
2019-03-09T08:03:43.553Z,1.90
2019-03-09T08:06:14.882Z,2.00
2019-03-09T08:08:46.188Z,2.40
2019-03-09T08:11:17.543Z,2.20
2019-03-09T08:13:48.855Z,1.97
2019-03-09T08:16:20.171Z,2.10
2019-03-09T08:18:52.882Z,2.10
2019-03-09T08:21:24.209Z,2.53
2019-03-09T08:23:56.555Z,1.93
2019-03-09T08:26:27.961Z,2.23
2019-03-09T08:28:59.268Z,1.90
2019-03-09T08:31:30.600Z,1.63
2019-03-09T08:34:01.896Z,1.90
2019-03-09T08:36:35.019Z,2.17
2019-03-09T08:39:07.637Z,1.90
2019-03-09T08:41:39.105Z,1.87
2019-03-09T08:44:10.615Z,2.00
2019-03-09T08:46:42.140Z,1.80
2019-03-09T08:49:13.963Z,1.87
2019-03-09T08:51:45.310Z,1.82
2019-03-09T08:54:16.742Z,1.50
2019-03-09T08:56:48.001Z,1.63
2019-03-09T08:59:19.491Z,2.20
2019-03-09T09:01:50.903Z,1.80
2019-03-09T09:04:22.211Z,2.30
2019-03-09T09:06:53.471Z,2.23
2019-03-09T09:09:25.049Z,3.08
2019-03-09T09:11:56.498Z,2.97
2019-03-09T09:14:27.760Z,1.77
2019-03-09T09:16:59.220Z,2.30
2019-03-09T09:19:30.977Z,1.90
2019-03-09T09:22:02.228Z,1.70
2019-03-09T09:24:33.645Z,1.83
2019-03-09T09:27:05.070Z,2.27
2019-03-09T09:29:36.470Z,1.80
2019-03-09T09:32:07.743Z,1.97
2019-03-09T09:34:39.393Z,1.70
2019-03-09T09:37:10.782Z,1.87
2019-03-09T09:39:42.778Z,1.50
2019-03-09T09:42:14.035Z,1.90
2019-03-09T09:44:45.418Z,1.60
2019-03-09T09:47:16.761Z,1.20
2019-03-09T09:49:48.111Z,1.37
2019-03-09T09:52:19.384Z,1.43
2019-03-09T09:54:50.714Z,1.73
2019-03-09T09:57:22.068Z,1.85
2019-03-09T09:59:53.441Z,1.53
2019-03-09T10:02:24.875Z,1.60
2019-03-09T10:04:56.174Z,1.73
2019-03-09T10:07:27.605Z,2.00
2019-03-09T10:09:59.045Z,1.50
2019-03-09T10:12:30.785Z,1.60
2019-03-09T10:15:02.333Z,1.47
2019-03-09T10:17:33.802Z,1.67
2019-03-09T10:20:05.899Z,1.70
2019-03-09T10:22:37.405Z,1.73
2019-03-09T10:25:09.826Z,1.27
2019-03-09T10:27:41.218Z,1.60
2019-03-09T10:30:15.475Z,1.60
2019-03-09T10:32:46.845Z,1.90
2019-03-09T10:35:18.158Z,1.40
2019-03-09T10:37:49.637Z,1.13
2019-03-09T10:40:21.686Z,1.10
2019-03-09T10:42:53.188Z,1.33
2019-03-09T10:45:24.535Z,1.30
2019-03-09T10:47:55.859Z,1.30
2019-03-09T10:50:27.259Z,1.50
2019-03-09T10:52:58.473Z,1.97
2019-03-09T10:55:31.526Z,1.47
2019-03-09T10:58:02.814Z,1.73
2019-03-09T11:00:34.762Z,1.57
2019-03-09T11:03:06.226Z,1.83
2019-03-09T11:05:37.879Z,1.83
2019-03-09T11:08:09.253Z,2.03
2019-03-09T11:10:40.622Z,3.00
2019-03-09T11:13:12.090Z,2.87
2019-03-09T11:15:43.525Z,3.07
2019-03-09T11:18:14.998Z,2.03
2019-03-09T11:20:46.291Z,2.20
2019-03-09T11:23:17.646Z,2.47
2019-03-09T11:25:50.728Z,2.07
2019-03-09T11:28:22.031Z,1.80
2019-03-09T11:30:53.362Z,2.33
2019-03-09T11:33:24.815Z,1.87
2019-03-09T11:35:56.398Z,1.72
2019-03-09T11:38:27.794Z,2.00
2019-03-09T11:41:00.865Z,1.77
2019-03-09T11:43:32.496Z,1.75
2019-03-09T11:46:03.876Z,1.80
2019-03-09T11:48:35.161Z,1.47
2019-03-09T11:51:07.280Z,2.13
2019-03-09T11:53:38.631Z,1.83
2019-03-09T11:56:09.924Z,1.83
2019-03-09T11:58:41.376Z,1.50
2019-03-09T12:01:12.847Z,1.47
2019-03-09T12:03:44.127Z,1.60
2019-03-09T12:06:15.613Z,1.40
2019-03-09T12:08:46.989Z,1.83
2019-03-09T12:11:18.509Z,1.25
2019-03-09T12:13:49.935Z,1.37
2019-03-09T12:16:21.332Z,1.50
2019-03-09T12:18:52.698Z,1.37
2019-03-09T12:21:24.032Z,1.35
2019-03-09T12:23:55.390Z,0.80
2019-03-09T12:26:30.415Z,1.20
2019-03-09T12:29:01.858Z,0.90
2019-03-09T12:31:33.326Z,1.13
2019-03-09T12:34:04.912Z,1.10
2019-03-09T12:36:36.295Z,1.00
2019-03-09T12:39:10.143Z,1.17
2019-03-09T12:41:41.849Z,0.90
2019-03-09T12:44:13.121Z,0.97
2019-03-09T12:46:44.481Z,0.97
2019-03-09T12:49:15.887Z,0.87
2019-03-09T12:51:47.214Z,0.70
2019-03-09T12:54:18.722Z,1.07
2019-03-09T12:56:50.335Z,1.20
2019-03-09T12:59:22.077Z,1.00
2019-03-09T13:01:53.401Z,1.20
2019-03-09T13:04:24.676Z,1.47
2019-03-09T13:06:56.031Z,1.00
2019-03-09T13:09:27.292Z,1.05
2019-03-09T13:11:58.843Z,1.13
2019-03-09T13:14:30.290Z,1.00
2019-03-09T13:17:01.585Z,1.40
2019-03-09T13:19:32.844Z,1.00
2019-03-09T13:22:04.377Z,1.00
2019-03-09T13:24:35.710Z,1.10
2019-03-09T13:27:07.087Z,0.90
2019-03-09T13:29:38.345Z,0.90
2019-03-09T13:32:09.851Z,1.20
2019-03-09T13:34:41.166Z,1.07
2019-03-09T13:37:12.897Z,1.33
2019-03-09T13:39:44.866Z,1.05
2019-03-09T13:42:16.526Z,0.83
2019-03-09T13:44:47.991Z,1.03
2019-03-09T13:47:19.284Z,4.00
2019-03-09T13:49:52.307Z,6.27
2019-03-09T13:52:23.842Z,1.70
2019-03-09T13:54:55.246Z,3.70
2019-03-09T13:57:26.624Z,1.13
2019-03-09T13:59:58.010Z,1.10
2019-03-09T14:02:29.501Z,1.17
2019-03-09T14:05:00.851Z,1.47
2019-03-09T14:07:32.219Z,1.32
2019-03-09T14:10:03.993Z,1.23
2019-03-09T14:12:35.345Z,0.90
2019-03-09T14:15:07.641Z,0.80
2019-03-09T14:17:39.059Z,0.87
2019-03-09T14:20:11.392Z,0.90
2019-03-09T14:22:42.768Z,0.93
2019-03-09T14:25:14.986Z,1.00
2019-03-09T14:27:46.338Z,1.07
2019-03-09T14:30:17.716Z,0.90
2019-03-09T14:32:49.201Z,0.70
2019-03-09T14:35:20.730Z,1.82
2019-03-09T14:37:52.253Z,1.13
2019-03-09T14:40:25.204Z,1.20
2019-03-09T14:42:56.653Z,0.90
2019-03-09T14:45:28.492Z,1.13
2019-03-09T14:47:59.876Z,0.97
2019-03-09T14:50:31.307Z,1.53
2019-03-09T14:53:02.594Z,2.30
2019-03-09T14:55:33.952Z,1.23
2019-03-09T14:58:05.886Z,1.30
2019-03-09T15:00:37.172Z,1.30
2019-03-09T15:03:08.769Z,1.30
2019-03-09T15:05:40.301Z,1.30
2019-03-09T15:08:12.021Z,1.27
2019-03-09T15:10:43.571Z,1.43
2019-03-09T15:13:16.671Z,1.07
2019-03-09T15:15:48.047Z,1.00
2019-03-09T15:18:19.361Z,1.27
2019-03-09T15:20:50.796Z,1.50
2019-03-09T15:23:22.137Z,1.85
2019-03-09T15:25:53.511Z,1.00
2019-03-09T15:28:24.956Z,1.20
2019-03-09T15:30:56.255Z,1.50
2019-03-09T15:33:27.738Z,1.50
2019-03-09T15:35:59.101Z,1.43
2019-03-09T15:38:31.021Z,1.30
2019-03-09T15:41:02.406Z,1.20
2019-03-09T15:43:34.128Z,1.37
2019-03-09T15:46:05.474Z,1.30
2019-03-09T15:48:36.960Z,1.57
2019-03-09T15:51:08.473Z,1.27
2019-03-09T15:53:39.833Z,1.37
2019-03-09T15:56:11.344Z,1.40
2019-03-09T15:58:42.790Z,0.90
2019-03-09T16:01:14.177Z,1.20
2019-03-09T16:03:45.528Z,3.07
2019-03-09T16:06:17.427Z,1.50
2019-03-09T16:08:48.876Z,1.77
2019-03-09T16:11:20.226Z,1.60
2019-03-09T16:13:51.581Z,1.97
2019-03-09T16:16:23.020Z,2.03
2019-03-09T16:18:54.919Z,1.80
2019-03-09T16:21:26.379Z,1.80
2019-03-09T16:23:57.696Z,1.40
2019-03-09T16:26:29.095Z,1.80
2019-03-09T16:29:00.453Z,1.17
2019-03-09T16:31:31.971Z,2.23
2019-03-09T16:34:03.371Z,1.20
2019-03-09T16:36:34.710Z,1.87
2019-03-09T16:39:06.743Z,2.37
2019-03-09T16:41:38.157Z,1.83
2019-03-09T16:44:09.680Z,1.77
2019-03-09T16:46:40.944Z,1.57
2019-03-09T16:49:12.428Z,2.23
2019-03-09T16:51:43.922Z,5.30
2019-03-09T16:54:15.191Z,2.50
2019-03-09T16:56:46.739Z,2.00
2019-03-09T16:59:18.196Z,2.93
2019-03-09T17:01:49.467Z,2.03
2019-03-09T17:04:20.900Z,1.50
2019-03-09T17:06:52.460Z,1.97
2019-03-09T17:09:23.903Z,1.63
2019-03-09T17:11:55.367Z,3.50
2019-03-09T17:14:26.862Z,2.63
2019-03-09T17:16:58.253Z,2.90
2019-03-09T17:19:29.944Z,2.08
2019-03-09T17:22:01.325Z,2.98
2019-03-09T17:24:32.777Z,2.20
2019-03-09T17:27:04.267Z,1.93
2019-03-09T17:29:35.802Z,1.87
2019-03-09T17:32:07.103Z,2.22
2019-03-09T17:34:38.644Z,2.60
2019-03-09T17:37:10.181Z,2.63
2019-03-09T17:39:41.502Z,2.20
2019-03-09T17:42:12.943Z,2.47
2019-03-09T17:44:44.437Z,4.97
2019-03-09T17:47:15.854Z,4.10
2019-03-09T17:49:48.341Z,5.40
2019-03-09T17:52:19.677Z,5.20
2019-03-09T17:54:51.039Z,3.00
2019-03-09T17:57:22.411Z,3.17
2019-03-09T17:59:53.907Z,3.90
2019-03-09T18:02:25.231Z,3.80
2019-03-09T18:04:56.934Z,3.30
2019-03-09T18:07:28.293Z,2.87
2019-03-09T18:09:59.732Z,2.10
2019-03-09T18:12:31.016Z,2.67
2019-03-09T18:15:02.409Z,3.43
2019-03-09T18:17:34.557Z,3.63
2019-03-09T18:20:06.094Z,4.00
2019-03-09T18:22:37.492Z,4.37
2019-03-09T18:25:09.014Z,4.80
2019-03-09T18:27:40.318Z,3.50
2019-03-09T18:30:12.539Z,3.10
2019-03-09T18:32:44.010Z,3.23
2019-03-09T18:35:15.362Z,4.87
2019-03-09T18:37:46.939Z,3.73
2019-03-09T18:40:18.293Z,3.80
2019-03-09T18:42:49.722Z,4.47
2019-03-09T18:45:21.074Z,5.00
2019-03-09T18:47:52.435Z,4.50
2019-03-09T18:50:24.842Z,4.77
2019-03-09T18:52:56.078Z,4.20
2019-03-09T18:55:27.404Z,4.17
2019-03-09T18:57:58.846Z,8.70
2019-03-09T19:00:30.103Z,5.97
2019-03-09T19:03:01.433Z,4.50
2019-03-09T19:05:32.706Z,4.07
2019-03-09T19:08:03.972Z,3.47
2019-03-09T19:10:35.367Z,3.17
2019-03-09T19:13:06.798Z,4.00
2019-03-09T19:15:38.071Z,2.70
2019-03-09T19:18:09.504Z,3.67
2019-03-09T19:20:40.841Z,3.70
2019-03-09T19:23:14.250Z,4.22
2019-03-09T19:25:45.636Z,3.30
2019-03-09T19:28:16.903Z,1.83
2019-03-09T19:30:48.172Z,5.47
2019-03-09T19:33:19.600Z,2.40
2019-03-09T19:35:51.114Z,3.27
2019-03-09T19:38:22.386Z,3.00
2019-03-09T19:40:53.869Z,3.80
2019-03-09T19:43:25.209Z,3.80
2019-03-09T19:45:56.495Z,4.37
2019-03-09T19:48:27.813Z,1.27
2019-03-09T19:50:59.292Z,0.97
2019-03-09T19:53:30.689Z,1.50
2019-03-09T19:56:02.216Z,1.43
2019-03-09T19:58:33.705Z,4.50
2019-03-09T20:01:07.681Z,1.00
2019-03-09T20:03:40.113Z,0.90
2019-03-09T20:06:11.689Z,1.33
2019-03-09T20:08:45.603Z,1.20
2019-03-09T20:11:17.194Z,0.90
2019-03-09T20:13:48.671Z,1.00
2019-03-09T20:16:20.165Z,0.80
2019-03-09T20:18:51.561Z,0.70
2019-03-09T20:21:23.155Z,0.70
2019-03-09T20:23:54.482Z,0.60
2019-03-09T20:26:27.617Z,0.63
2019-03-09T20:28:58.991Z,0.87
2019-03-09T20:31:30.491Z,1.80
2019-03-09T20:34:01.771Z,0.60
2019-03-09T20:36:33.118Z,0.80
2019-03-09T20:39:05.518Z,1.07
2019-03-09T20:41:37.178Z,0.73
2019-03-09T20:44:08.596Z,1.10
2019-03-09T20:46:42.111Z,0.80
2019-03-09T20:49:13.164Z,1.30
2019-03-09T20:51:44.938Z,1.50
2019-03-09T20:54:16.395Z,0.90
2019-03-09T20:56:48.015Z,0.93
2019-03-09T20:59:19.690Z,1.33
2019-03-09T21:01:51.020Z,0.77
2019-03-09T21:04:22.426Z,1.70
2019-03-09T21:06:53.805Z,1.93
2019-03-09T21:09:25.198Z,2.23
2019-03-09T21:11:56.521Z,2.63
2019-03-09T21:14:27.842Z,2.90
2019-03-09T21:16:59.890Z,3.90
2019-03-09T21:19:31.351Z,1.93
2019-03-09T21:22:03.069Z,2.33
2019-03-09T21:24:34.878Z,1.47
2019-03-09T21:27:06.172Z,1.97
2019-03-09T21:29:37.473Z,1.47
2019-03-09T21:32:08.918Z,0.77
2019-03-09T21:34:41.981Z,1.77
2019-03-09T21:37:14.010Z,3.70
2019-03-09T21:39:45.415Z,0.70
2019-03-09T21:42:16.781Z,1.20
2019-03-09T21:44:48.848Z,2.27
2019-03-09T21:47:20.461Z,0.83
2019-03-09T21:49:51.838Z,1.90
2019-03-09T21:52:23.422Z,0.87
2019-03-09T21:54:57.800Z,2.60
2019-03-09T21:57:29.363Z,1.07
2019-03-09T22:00:04.773Z,0.90
2019-03-09T22:02:36.126Z,0.90
2019-03-09T22:05:09.799Z,0.70
2019-03-09T22:07:41.332Z,0.80
2019-03-09T22:10:13.176Z,0.60
2019-03-09T22:12:44.817Z,0.60
2019-03-09T22:15:16.164Z,0.63
2019-03-09T22:17:47.478Z,0.68
2019-03-09T22:20:20.619Z,0.80
2019-03-09T22:22:53.475Z,0.67
2019-03-09T22:25:24.856Z,0.73
2019-03-09T22:27:57.124Z,1.00
2019-03-09T22:30:28.473Z,0.97
2019-03-09T22:32:59.785Z,1.10
2019-03-09T22:35:31.140Z,0.77
2019-03-09T22:38:02.695Z,1.07
2019-03-09T22:40:34.136Z,1.20
2019-03-09T22:43:05.589Z,1.00
2019-03-09T22:45:37.032Z,1.10
2019-03-09T22:48:08.367Z,0.93
2019-03-09T22:50:39.894Z,1.20
2019-03-09T22:53:11.568Z,1.20
2019-03-09T22:55:42.853Z,1.70
2019-03-09T22:58:14.184Z,1.90
2019-03-09T23:00:45.530Z,1.33
2019-03-09T23:03:16.982Z,1.03
2019-03-09T23:05:48.411Z,1.30
2019-03-09T23:08:19.962Z,1.30
2019-03-09T23:10:53.056Z,1.17
2019-03-09T23:13:24.600Z,1.20
2019-03-09T23:15:55.986Z,1.33
2019-03-09T23:18:27.401Z,1.20
2019-03-09T23:20:58.776Z,1.30
2019-03-09T23:23:30.221Z,1.40
2019-03-09T23:26:01.611Z,1.80
2019-03-09T23:28:46.359Z,1.60
2019-03-09T23:31:17.629Z,1.73
2019-03-09T23:33:49.202Z,1.50
2019-03-09T23:36:20.846Z,1.77
2019-03-09T23:38:52.201Z,1.87
2019-03-09T23:41:23.651Z,1.87
2019-03-09T23:43:55.116Z,1.83
2019-03-09T23:46:26.533Z,1.83
2019-03-09T23:48:57.796Z,1.53
2019-03-09T23:51:29.089Z,1.80
2019-03-09T23:54:01.354Z,1.70
2019-03-09T23:56:32.772Z,1.47
2019-03-09T23:59:04.217Z,2.07
